sensor_id;sensor_type;location;lat;lon;timestamp;P1;durP1;ratioP1;P2;durP2;ratioP2
18838;SDS011;9548;56.920;14.804;2023-06-22T00:00:48;6.90;;;4.22;;
18838;SDS011;9548;56.920;14.804;2023-06-22T00:03:16;11.30;;;4.10;;
18838;SDS011;9548;56.920;14.804;2023-06-22T00:05:44;8.15;;;3.75;;
18838;SDS011;9548;56.920;14.804;2023-06-22T00:08:11;6.55;;;4.03;;
18838;SDS011;9548;56.920;14.804;2023-06-22T00:10:38;5.03;;;3.47;;
18838;SDS011;9548;56.920;14.804;2023-06-22T00:13:06;7.28;;;3.70;;
18838;SDS011;9548;56.920;14.804;2023-06-22T00:15:35;8.65;;;3.95;;
18838;SDS011;9548;56.920;14.804;2023-06-22T00:18:02;6.20;;;3.67;;
18838;SDS011;9548;56.920;14.804;2023-06-22T00:20:30;4.97;;;3.40;;
18838;SDS011;9548;56.920;14.804;2023-06-22T00:22:58;9.35;;;2.80;;
18838;SDS011;9548;56.920;14.804;2023-06-22T00:25:26;4.13;;;2.60;;
18838;SDS011;9548;56.920;14.804;2023-06-22T00:27:52;3.40;;;2.50;;
18838;SDS011;9548;56.920;14.804;2023-06-22T00:30:19;8.13;;;2.30;;
18838;SDS011;9548;56.920;14.804;2023-06-22T00:32:47;3.47;;;2.33;;
18838;SDS011;9548;56.920;14.804;2023-06-22T00:35:14;4.10;;;2.10;;
18838;SDS011;9548;56.920;14.804;2023-06-22T00:37:41;3.58;;;1.90;;
18838;SDS011;9548;56.920;14.804;2023-06-22T00:40:08;2.78;;;2.00;;
18838;SDS011;9548;56.920;14.804;2023-06-22T00:42:37;6.57;;;2.35;;
18838;SDS011;9548;56.920;14.804;2023-06-22T00:45:04;3.22;;;2.10;;
18838;SDS011;9548;56.920;14.804;2023-06-22T00:47:32;6.07;;;2.20;;
18838;SDS011;9548;56.920;14.804;2023-06-22T00:50:03;3.85;;;2.25;;
18838;SDS011;9548;56.920;14.804;2023-06-22T00:52:34;6.20;;;2.35;;
18838;SDS011;9548;56.920;14.804;2023-06-22T00:55:01;5.88;;;2.20;;
18838;SDS011;9548;56.920;14.804;2023-06-22T00:57:29;6.70;;;2.65;;
18838;SDS011;9548;56.920;14.804;2023-06-22T00:59:56;4.30;;;2.42;;
18838;SDS011;9548;56.920;14.804;2023-06-22T01:02:23;3.63;;;2.30;;
18838;SDS011;9548;56.920;14.804;2023-06-22T01:04:50;6.03;;;2.50;;
18838;SDS011;9548;56.920;14.804;2023-06-22T01:07:20;5.97;;;2.53;;
18838;SDS011;9548;56.920;14.804;2023-06-22T01:09:56;6.20;;;2.55;;
18838;SDS011;9548;56.920;14.804;2023-06-22T01:12:29;3.30;;;2.30;;
18838;SDS011;9548;56.920;14.804;2023-06-22T01:15:02;3.10;;;2.10;;
18838;SDS011;9548;56.920;14.804;2023-06-22T01:17:34;4.45;;;2.40;;
18838;SDS011;9548;56.920;14.804;2023-06-22T01:20:02;3.90;;;2.20;;
18838;SDS011;9548;56.920;14.804;2023-06-22T01:22:36;4.40;;;2.13;;
18838;SDS011;9548;56.920;14.804;2023-06-22T01:25:25;4.82;;;2.20;;
18838;SDS011;9548;56.920;14.804;2023-06-22T01:27:58;4.70;;;2.53;;
18838;SDS011;9548;56.920;14.804;2023-06-22T01:30:33;3.65;;;2.40;;
18838;SDS011;9548;56.920;14.804;2023-06-22T01:33:03;5.38;;;2.30;;
18838;SDS011;9548;56.920;14.804;2023-06-22T01:35:31;5.78;;;2.50;;
18838;SDS011;9548;56.920;14.804;2023-06-22T01:37:59;4.50;;;2.53;;
18838;SDS011;9548;56.920;14.804;2023-06-22T01:40:26;6.15;;;2.53;;
18838;SDS011;9548;56.920;14.804;2023-06-22T01:42:56;4.50;;;2.35;;
18838;SDS011;9548;56.920;14.804;2023-06-22T01:45:23;3.97;;;2.30;;
18838;SDS011;9548;56.920;14.804;2023-06-22T01:47:52;8.88;;;2.65;;
18838;SDS011;9548;56.920;14.804;2023-06-22T01:50:20;7.60;;;3.00;;
18838;SDS011;9548;56.920;14.804;2023-06-22T01:52:47;4.28;;;2.60;;
18838;SDS011;9548;56.920;14.804;2023-06-22T01:55:14;5.82;;;2.55;;
18838;SDS011;9548;56.920;14.804;2023-06-22T01:57:41;8.60;;;2.75;;
18838;SDS011;9548;56.920;14.804;2023-06-22T02:00:09;3.60;;;2.40;;
18838;SDS011;9548;56.920;14.804;2023-06-22T02:02:43;6.10;;;2.90;;
18838;SDS011;9548;56.920;14.804;2023-06-22T02:05:17;4.45;;;2.63;;
18838;SDS011;9548;56.920;14.804;2023-06-22T02:07:46;6.75;;;2.50;;
18838;SDS011;9548;56.920;14.804;2023-06-22T02:10:19;5.25;;;2.83;;
18838;SDS011;9548;56.920;14.804;2023-06-22T02:12:47;5.50;;;2.30;;
18838;SDS011;9548;56.920;14.804;2023-06-22T02:15:16;5.60;;;3.00;;
18838;SDS011;9548;56.920;14.804;2023-06-22T02:17:43;7.15;;;2.75;;
18838;SDS011;9548;56.920;14.804;2023-06-22T02:20:12;6.90;;;2.78;;
18838;SDS011;9548;56.920;14.804;2023-06-22T02:22:40;5.30;;;2.92;;
18838;SDS011;9548;56.920;14.804;2023-06-22T02:25:07;4.53;;;2.55;;
18838;SDS011;9548;56.920;14.804;2023-06-22T02:27:34;4.43;;;2.70;;
18838;SDS011;9548;56.920;14.804;2023-06-22T02:30:01;8.18;;;3.03;;
18838;SDS011;9548;56.920;14.804;2023-06-22T02:32:29;6.05;;;3.00;;
18838;SDS011;9548;56.920;14.804;2023-06-22T02:34:55;7.70;;;2.85;;
18838;SDS011;9548;56.920;14.804;2023-06-22T02:37:22;4.68;;;2.67;;
18838;SDS011;9548;56.920;14.804;2023-06-22T02:39:51;4.25;;;2.58;;
18838;SDS011;9548;56.920;14.804;2023-06-22T02:42:18;6.03;;;3.13;;
18838;SDS011;9548;56.920;14.804;2023-06-22T02:44:46;6.03;;;2.80;;
18838;SDS011;9548;56.920;14.804;2023-06-22T02:47:13;5.72;;;2.90;;
18838;SDS011;9548;56.920;14.804;2023-06-22T02:49:40;8.13;;;2.97;;
18838;SDS011;9548;56.920;14.804;2023-06-22T02:52:10;5.80;;;3.00;;
18838;SDS011;9548;56.920;14.804;2023-06-22T02:54:36;8.57;;;3.08;;
18838;SDS011;9548;56.920;14.804;2023-06-22T02:57:05;5.40;;;2.80;;
18838;SDS011;9548;56.920;14.804;2023-06-22T02:59:34;6.20;;;3.05;;
18838;SDS011;9548;56.920;14.804;2023-06-22T03:02:01;6.95;;;3.05;;
18838;SDS011;9548;56.920;14.804;2023-06-22T03:04:28;7.43;;;3.20;;
18838;SDS011;9548;56.920;14.804;2023-06-22T03:06:56;6.80;;;3.10;;
18838;SDS011;9548;56.920;14.804;2023-06-22T03:09:26;6.07;;;3.40;;
18838;SDS011;9548;56.920;14.804;2023-06-22T03:11:53;7.40;;;3.33;;
18838;SDS011;9548;56.920;14.804;2023-06-22T03:14:22;5.40;;;2.78;;
18838;SDS011;9548;56.920;14.804;2023-06-22T03:16:49;6.90;;;3.05;;
18838;SDS011;9548;56.920;14.804;2023-06-22T03:19:16;5.93;;;3.17;;
18838;SDS011;9548;56.920;14.804;2023-06-22T03:21:43;7.20;;;3.08;;
18838;SDS011;9548;56.920;14.804;2023-06-22T03:24:09;7.70;;;3.53;;
18838;SDS011;9548;56.920;14.804;2023-06-22T03:26:36;8.68;;;3.60;;
18838;SDS011;9548;56.920;14.804;2023-06-22T03:29:03;4.35;;;3.05;;
18838;SDS011;9548;56.920;14.804;2023-06-22T03:31:31;6.22;;;3.35;;
18838;SDS011;9548;56.920;14.804;2023-06-22T03:33:58;8.25;;;3.17;;
18838;SDS011;9548;56.920;14.804;2023-06-22T03:36:25;6.25;;;3.00;;
18838;SDS011;9548;56.920;14.804;2023-06-22T03:38:52;9.40;;;3.10;;
18838;SDS011;9548;56.920;14.804;2023-06-22T03:41:19;4.30;;;3.15;;
18838;SDS011;9548;56.920;14.804;2023-06-22T03:43:46;5.43;;;3.10;;
18838;SDS011;9548;56.920;14.804;2023-06-22T03:46:13;4.15;;;3.00;;
18838;SDS011;9548;56.920;14.804;2023-06-22T03:48:41;4.03;;;3.20;;
18838;SDS011;9548;56.920;14.804;2023-06-22T03:51:08;7.90;;;3.03;;
18838;SDS011;9548;56.920;14.804;2023-06-22T03:53:34;6.15;;;3.22;;
18838;SDS011;9548;56.920;14.804;2023-06-22T03:56:01;4.68;;;3.17;;
18838;SDS011;9548;56.920;14.804;2023-06-22T03:58:28;9.32;;;3.28;;
18838;SDS011;9548;56.920;14.804;2023-06-22T04:00:58;5.13;;;3.05;;
18838;SDS011;9548;56.920;14.804;2023-06-22T04:03:25;5.47;;;3.00;;
18838;SDS011;9548;56.920;14.804;2023-06-22T04:05:54;4.82;;;3.15;;
18838;SDS011;9548;56.920;14.804;2023-06-22T04:08:20;7.43;;;2.97;;
18838;SDS011;9548;56.920;14.804;2023-06-22T04:10:47;8.55;;;2.85;;
18838;SDS011;9548;56.920;14.804;2023-06-22T04:13:14;5.57;;;3.10;;
18838;SDS011;9548;56.920;14.804;2023-06-22T04:15:41;5.90;;;3.00;;
18838;SDS011;9548;56.920;14.804;2023-06-22T04:18:08;4.85;;;3.22;;
18838;SDS011;9548;56.920;14.804;2023-06-22T04:20:35;6.53;;;3.08;;
18838;SDS011;9548;56.920;14.804;2023-06-22T04:23:03;7.05;;;3.40;;
18838;SDS011;9548;56.920;14.804;2023-06-22T04:25:30;6.90;;;3.50;;
18838;SDS011;9548;56.920;14.804;2023-06-22T04:27:57;5.85;;;3.10;;
18838;SDS011;9548;56.920;14.804;2023-06-22T04:30:24;8.63;;;3.38;;
18838;SDS011;9548;56.920;14.804;2023-06-22T04:32:51;7.05;;;3.33;;
18838;SDS011;9548;56.920;14.804;2023-06-22T04:35:22;6.88;;;3.20;;
18838;SDS011;9548;56.920;14.804;2023-06-22T04:37:49;6.50;;;3.30;;
18838;SDS011;9548;56.920;14.804;2023-06-22T04:40:21;7.00;;;3.15;;
18838;SDS011;9548;56.920;14.804;2023-06-22T04:42:48;9.93;;;3.58;;
18838;SDS011;9548;56.920;14.804;2023-06-22T04:45:18;6.15;;;3.25;;
18838;SDS011;9548;56.920;14.804;2023-06-22T04:47:46;7.70;;;3.30;;
18838;SDS011;9548;56.920;14.804;2023-06-22T04:50:13;14.60;;;3.50;;
18838;SDS011;9548;56.920;14.804;2023-06-22T04:52:40;9.20;;;3.28;;
18838;SDS011;9548;56.920;14.804;2023-06-22T04:55:07;6.03;;;2.90;;
18838;SDS011;9548;56.920;14.804;2023-06-22T04:57:35;8.00;;;3.60;;
18838;SDS011;9548;56.920;14.804;2023-06-22T05:00:05;6.05;;;3.03;;
18838;SDS011;9548;56.920;14.804;2023-06-22T05:02:37;7.40;;;3.15;;
18838;SDS011;9548;56.920;14.804;2023-06-22T05:05:04;6.45;;;3.17;;
18838;SDS011;9548;56.920;14.804;2023-06-22T05:07:32;8.48;;;3.13;;
18838;SDS011;9548;56.920;14.804;2023-06-22T05:09:59;9.10;;;3.30;;
18838;SDS011;9548;56.920;14.804;2023-06-22T05:12:27;9.15;;;3.20;;
18838;SDS011;9548;56.920;14.804;2023-06-22T05:14:56;4.85;;;2.80;;
18838;SDS011;9548;56.920;14.804;2023-06-22T05:17:23;5.63;;;2.80;;
18838;SDS011;9548;56.920;14.804;2023-06-22T05:19:50;6.88;;;3.05;;
18838;SDS011;9548;56.920;14.804;2023-06-22T05:22:17;6.18;;;3.10;;
18838;SDS011;9548;56.920;14.804;2023-06-22T05:24:44;8.10;;;3.13;;
18838;SDS011;9548;56.920;14.804;2023-06-22T05:27:11;6.28;;;3.03;;
18838;SDS011;9548;56.920;14.804;2023-06-22T05:29:37;9.27;;;3.25;;
18838;SDS011;9548;56.920;14.804;2023-06-22T05:32:06;4.70;;;2.70;;
18838;SDS011;9548;56.920;14.804;2023-06-22T05:34:33;4.97;;;2.65;;
18838;SDS011;9548;56.920;14.804;2023-06-22T05:37:01;5.05;;;2.55;;
18838;SDS011;9548;56.920;14.804;2023-06-22T05:39:28;7.22;;;2.58;;
18838;SDS011;9548;56.920;14.804;2023-06-22T05:41:55;3.50;;;2.40;;
18838;SDS011;9548;56.920;14.804;2023-06-22T05:44:22;5.55;;;2.70;;
18838;SDS011;9548;56.920;14.804;2023-06-22T05:46:48;6.07;;;2.65;;
18838;SDS011;9548;56.920;14.804;2023-06-22T05:49:17;6.78;;;2.88;;
18838;SDS011;9548;56.920;14.804;2023-06-22T05:51:44;5.53;;;2.80;;
18838;SDS011;9548;56.920;14.804;2023-06-22T05:54:10;6.50;;;2.78;;
18838;SDS011;9548;56.920;14.804;2023-06-22T05:56:38;6.03;;;2.72;;
18838;SDS011;9548;56.920;14.804;2023-06-22T05:59:05;4.93;;;2.70;;
18838;SDS011;9548;56.920;14.804;2023-06-22T06:01:32;5.03;;;2.72;;
18838;SDS011;9548;56.920;14.804;2023-06-22T06:04:01;4.93;;;2.78;;
18838;SDS011;9548;56.920;14.804;2023-06-22T06:06:30;3.88;;;2.33;;
18838;SDS011;9548;56.920;14.804;2023-06-22T06:08:57;6.97;;;2.97;;
18838;SDS011;9548;56.920;14.804;2023-06-22T06:11:24;6.43;;;2.95;;
18838;SDS011;9548;56.920;14.804;2023-06-22T06:13:51;4.68;;;2.78;;
18838;SDS011;9548;56.920;14.804;2023-06-22T06:16:18;6.35;;;2.70;;
18838;SDS011;9548;56.920;14.804;2023-06-22T06:18:45;5.72;;;2.72;;
18838;SDS011;9548;56.920;14.804;2023-06-22T06:21:13;3.28;;;2.63;;
18838;SDS011;9548;56.920;14.804;2023-06-22T06:23:41;5.72;;;2.35;;
18838;SDS011;9548;56.920;14.804;2023-06-22T06:26:08;5.70;;;2.60;;
18838;SDS011;9548;56.920;14.804;2023-06-22T06:28:35;5.05;;;2.70;;
18838;SDS011;9548;56.920;14.804;2023-06-22T06:31:02;5.93;;;2.85;;
18838;SDS011;9548;56.920;14.804;2023-06-22T06:33:32;4.75;;;2.75;;
18838;SDS011;9548;56.920;14.804;2023-06-22T06:35:59;5.25;;;2.85;;
18838;SDS011;9548;56.920;14.804;2023-06-22T06:38:28;4.35;;;2.75;;
18838;SDS011;9548;56.920;14.804;2023-06-22T06:40:57;8.32;;;3.28;;
18838;SDS011;9548;56.920;14.804;2023-06-22T06:43:24;7.13;;;3.00;;
18838;SDS011;9548;56.920;14.804;2023-06-22T06:45:51;8.23;;;3.15;;
18838;SDS011;9548;56.920;14.804;2023-06-22T06:48:18;9.02;;;3.03;;
18838;SDS011;9548;56.920;14.804;2023-06-22T06:50:45;6.63;;;3.22;;
18838;SDS011;9548;56.920;14.804;2023-06-22T06:53:12;6.63;;;3.13;;
18838;SDS011;9548;56.920;14.804;2023-06-22T06:55:39;4.88;;;2.92;;
18838;SDS011;9548;56.920;14.804;2023-06-22T06:58:07;5.28;;;2.88;;
18838;SDS011;9548;56.920;14.804;2023-06-22T07:00:37;5.55;;;3.08;;
18838;SDS011;9548;56.920;14.804;2023-06-22T07:03:03;4.40;;;2.85;;
18838;SDS011;9548;56.920;14.804;2023-06-22T07:05:32;4.68;;;2.97;;
18838;SDS011;9548;56.920;14.804;2023-06-22T07:07:58;5.70;;;3.00;;
18838;SDS011;9548;56.920;14.804;2023-06-22T07:10:25;7.60;;;3.60;;
18838;SDS011;9548;56.920;14.804;2023-06-22T07:12:52;6.05;;;3.60;;
18838;SDS011;9548;56.920;14.804;2023-06-22T07:15:21;5.95;;;3.20;;
18838;SDS011;9548;56.920;14.804;2023-06-22T07:17:47;5.50;;;3.75;;
18838;SDS011;9548;56.920;14.804;2023-06-22T07:20:14;7.10;;;3.95;;
18838;SDS011;9548;56.920;14.804;2023-06-22T07:22:42;6.60;;;3.33;;
18838;SDS011;9548;56.920;14.804;2023-06-22T07:25:11;7.93;;;3.38;;
18838;SDS011;9548;56.920;14.804;2023-06-22T07:27:39;8.13;;;3.38;;
18838;SDS011;9548;56.920;14.804;2023-06-22T07:30:10;8.30;;;3.17;;
18838;SDS011;9548;56.920;14.804;2023-06-22T07:32:39;9.32;;;3.58;;
18838;SDS011;9548;56.920;14.804;2023-06-22T07:35:07;8.13;;;3.53;;
18838;SDS011;9548;56.920;14.804;2023-06-22T07:37:34;5.00;;;3.45;;
18838;SDS011;9548;56.920;14.804;2023-06-22T07:40:01;10.02;;;3.30;;
18838;SDS011;9548;56.920;14.804;2023-06-22T07:42:31;6.72;;;3.40;;
18838;SDS011;9548;56.920;14.804;2023-06-22T07:44:58;7.88;;;3.08;;
18838;SDS011;9548;56.920;14.804;2023-06-22T07:47:26;4.20;;;3.22;;
18838;SDS011;9548;56.920;14.804;2023-06-22T07:49:55;4.43;;;2.88;;
18838;SDS011;9548;56.920;14.804;2023-06-22T07:52:26;4.90;;;3.03;;
18838;SDS011;9548;56.920;14.804;2023-06-22T07:54:53;13.15;;;3.05;;
18838;SDS011;9548;56.920;14.804;2023-06-22T07:57:20;3.20;;;2.70;;
18838;SDS011;9548;56.920;14.804;2023-06-22T07:59:47;4.68;;;2.80;;
18838;SDS011;9548;56.920;14.804;2023-06-22T08:02:14;4.13;;;2.85;;
18838;SDS011;9548;56.920;14.804;2023-06-22T08:04:41;4.82;;;2.53;;
18838;SDS011;9548;56.920;14.804;2023-06-22T08:07:09;8.43;;;2.58;;
18838;SDS011;9548;56.920;14.804;2023-06-22T08:09:36;4.63;;;2.75;;
18838;SDS011;9548;56.920;14.804;2023-06-22T08:12:03;4.05;;;2.55;;
18838;SDS011;9548;56.920;14.804;2023-06-22T08:14:31;6.63;;;2.50;;
18838;SDS011;9548;56.920;14.804;2023-06-22T08:16:57;3.92;;;2.55;;
18838;SDS011;9548;56.920;14.804;2023-06-22T08:19:24;5.50;;;2.95;;
18838;SDS011;9548;56.920;14.804;2023-06-22T08:21:51;4.82;;;2.80;;
18838;SDS011;9548;56.920;14.804;2023-06-22T08:24:19;6.50;;;2.90;;
18838;SDS011;9548;56.920;14.804;2023-06-22T08:26:46;4.22;;;2.58;;
18838;SDS011;9548;56.920;14.804;2023-06-22T08:29:13;5.55;;;3.08;;
18838;SDS011;9548;56.920;14.804;2023-06-22T08:31:40;6.25;;;2.83;;
18838;SDS011;9548;56.920;14.804;2023-06-22T08:34:07;7.70;;;2.90;;
18838;SDS011;9548;56.920;14.804;2023-06-22T08:36:34;5.07;;;2.72;;
18838;SDS011;9548;56.920;14.804;2023-06-22T08:39:02;6.40;;;2.90;;
18838;SDS011;9548;56.920;14.804;2023-06-22T08:41:33;5.30;;;2.65;;
18838;SDS011;9548;56.920;14.804;2023-06-22T08:44:00;5.07;;;2.65;;
18838;SDS011;9548;56.920;14.804;2023-06-22T08:46:27;5.30;;;2.92;;
18838;SDS011;9548;56.920;14.804;2023-06-22T08:48:58;4.40;;;2.80;;
18838;SDS011;9548;56.920;14.804;2023-06-22T08:51:26;4.65;;;2.53;;
18838;SDS011;9548;56.920;14.804;2023-06-22T08:53:53;6.10;;;3.28;;
18838;SDS011;9548;56.920;14.804;2023-06-22T08:56:20;6.63;;;2.80;;
18838;SDS011;9548;56.920;14.804;2023-06-22T08:58:48;3.95;;;2.72;;
18838;SDS011;9548;56.920;14.804;2023-06-22T09:01:15;5.63;;;2.90;;
18838;SDS011;9548;56.920;14.804;2023-06-22T09:03:42;7.32;;;2.78;;
18838;SDS011;9548;56.920;14.804;2023-06-22T09:06:09;3.38;;;2.95;;
18838;SDS011;9548;56.920;14.804;2023-06-22T09:08:36;4.18;;;2.33;;
18838;SDS011;9548;56.920;14.804;2023-06-22T09:11:03;5.28;;;2.30;;
18838;SDS011;9548;56.920;14.804;2023-06-22T09:13:30;4.32;;;2.50;;
18838;SDS011;9548;56.920;14.804;2023-06-22T09:15:58;6.45;;;2.63;;
18838;SDS011;9548;56.920;14.804;2023-06-22T09:18:25;6.95;;;2.70;;
18838;SDS011;9548;56.920;14.804;2023-06-22T09:20:52;3.83;;;2.20;;
18838;SDS011;9548;56.920;14.804;2023-06-22T09:23:19;5.63;;;2.28;;
18838;SDS011;9548;56.920;14.804;2023-06-22T09:25:46;6.53;;;2.40;;
18838;SDS011;9548;56.920;14.804;2023-06-22T09:28:13;4.70;;;2.53;;
18838;SDS011;9548;56.920;14.804;2023-06-22T09:30:40;4.30;;;2.42;;
18838;SDS011;9548;56.920;14.804;2023-06-22T09:33:10;4.65;;;2.92;;
18838;SDS011;9548;56.920;14.804;2023-06-22T09:35:37;3.80;;;2.30;;
18838;SDS011;9548;56.920;14.804;2023-06-22T09:38:04;4.85;;;2.17;;
18838;SDS011;9548;56.920;14.804;2023-06-22T09:40:31;4.00;;;2.30;;
18838;SDS011;9548;56.920;14.804;2023-06-22T09:43:00;5.65;;;2.42;;
18838;SDS011;9548;56.920;14.804;2023-06-22T09:45:27;4.15;;;2.50;;
18838;SDS011;9548;56.920;14.804;2023-06-22T09:47:54;5.82;;;2.17;;
18838;SDS011;9548;56.920;14.804;2023-06-22T09:50:22;3.40;;;2.20;;
18838;SDS011;9548;56.920;14.804;2023-06-22T09:52:50;5.15;;;2.35;;
18838;SDS011;9548;56.920;14.804;2023-06-22T09:55:19;4.22;;;2.35;;
18838;SDS011;9548;56.920;14.804;2023-06-22T09:57:46;3.53;;;2.10;;
18838;SDS011;9548;56.920;14.804;2023-06-22T10:00:15;2.65;;;1.95;;
18838;SDS011;9548;56.920;14.804;2023-06-22T10:02:44;3.90;;;2.20;;
18838;SDS011;9548;56.920;14.804;2023-06-22T10:05:11;5.50;;;2.30;;
18838;SDS011;9548;56.920;14.804;2023-06-22T10:07:39;3.35;;;2.15;;
18838;SDS011;9548;56.920;14.804;2023-06-22T10:10:08;3.50;;;1.92;;
18838;SDS011;9548;56.920;14.804;2023-06-22T10:12:35;2.85;;;1.80;;
18838;SDS011;9548;56.920;14.804;2023-06-22T10:15:02;4.65;;;1.83;;
18838;SDS011;9548;56.920;14.804;2023-06-22T10:17:29;5.15;;;1.85;;
18838;SDS011;9548;56.920;14.804;2023-06-22T10:19:56;4.10;;;1.48;;
18838;SDS011;9548;56.920;14.804;2023-06-22T10:22:23;2.03;;;1.70;;
18838;SDS011;9548;56.920;14.804;2023-06-22T10:24:51;2.72;;;1.70;;
18838;SDS011;9548;56.920;14.804;2023-06-22T10:27:18;2.53;;;1.60;;
18838;SDS011;9548;56.920;14.804;2023-06-22T10:29:45;4.20;;;1.70;;
18838;SDS011;9548;56.920;14.804;2023-06-22T10:32:12;5.30;;;1.67;;
18838;SDS011;9548;56.920;14.804;2023-06-22T10:34:39;2.00;;;1.50;;
18838;SDS011;9548;56.920;14.804;2023-06-22T10:37:06;3.22;;;1.48;;
18838;SDS011;9548;56.920;14.804;2023-06-22T10:39:33;4.15;;;1.90;;
18838;SDS011;9548;56.920;14.804;2023-06-22T10:42:01;2.30;;;1.60;;
18838;SDS011;9548;56.920;14.804;2023-06-22T10:44:28;2.33;;;1.63;;
18838;SDS011;9548;56.920;14.804;2023-06-22T10:46:55;4.47;;;2.00;;
18838;SDS011;9548;56.920;14.804;2023-06-22T10:49:22;4.88;;;1.70;;
18838;SDS011;9548;56.920;14.804;2023-06-22T10:51:48;5.05;;;1.60;;
18838;SDS011;9548;56.920;14.804;2023-06-22T10:54:15;2.47;;;1.65;;
18838;SDS011;9548;56.920;14.804;2023-06-22T10:56:44;3.95;;;1.77;;
18838;SDS011;9548;56.920;14.804;2023-06-22T10:59:12;2.40;;;1.50;;
18838;SDS011;9548;56.920;14.804;2023-06-22T11:01:39;5.63;;;1.70;;
18838;SDS011;9548;56.920;14.804;2023-06-22T11:04:06;5.47;;;1.63;;
18838;SDS011;9548;56.920;14.804;2023-06-22T11:06:33;3.05;;;1.63;;
18838;SDS011;9548;56.920;14.804;2023-06-22T11:09:00;3.95;;;1.70;;
18838;SDS011;9548;56.920;14.804;2023-06-22T11:11:27;3.28;;;1.80;;
18838;SDS011;9548;56.920;14.804;2023-06-22T11:13:54;2.95;;;1.70;;
18838;SDS011;9548;56.920;14.804;2023-06-22T11:16:22;2.92;;;1.88;;
18838;SDS011;9548;56.920;14.804;2023-06-22T11:18:49;11.93;;;1.70;;
18838;SDS011;9548;56.920;14.804;2023-06-22T11:21:16;1.98;;;1.40;;
18838;SDS011;9548;56.920;14.804;2023-06-22T11:23:43;2.95;;;1.40;;
18838;SDS011;9548;56.920;14.804;2023-06-22T11:26:10;2.03;;;1.30;;
18838;SDS011;9548;56.920;14.804;2023-06-22T11:28:37;4.55;;;1.77;;
18838;SDS011;9548;56.920;14.804;2023-06-22T11:31:04;2.20;;;1.30;;
18838;SDS011;9548;56.920;14.804;2023-06-22T11:33:33;3.03;;;1.38;;
18838;SDS011;9548;56.920;14.804;2023-06-22T11:36:00;2.38;;;1.48;;
18838;SDS011;9548;56.920;14.804;2023-06-22T11:38:27;2.45;;;1.67;;
18838;SDS011;9548;56.920;14.804;2023-06-22T11:40:54;3.10;;;1.65;;
18838;SDS011;9548;56.920;14.804;2023-06-22T11:43:21;2.92;;;1.77;;
18838;SDS011;9548;56.920;14.804;2023-06-22T11:45:48;5.10;;;1.60;;
18838;SDS011;9548;56.920;14.804;2023-06-22T11:48:15;3.15;;;1.60;;
18838;SDS011;9548;56.920;14.804;2023-06-22T11:50:43;1.70;;;1.60;;
18838;SDS011;9548;56.920;14.804;2023-06-22T11:53:10;5.28;;;1.42;;
18838;SDS011;9548;56.920;14.804;2023-06-22T11:55:41;2.40;;;1.45;;
18838;SDS011;9548;56.920;14.804;2023-06-22T11:58:08;4.82;;;1.60;;
18838;SDS011;9548;56.920;14.804;2023-06-22T12:00:36;2.38;;;1.50;;
18838;SDS011;9548;56.920;14.804;2023-06-22T12:03:03;6.00;;;1.50;;
18838;SDS011;9548;56.920;14.804;2023-06-22T12:05:30;1.63;;;1.40;;
18838;SDS011;9548;56.920;14.804;2023-06-22T12:07:58;4.55;;;1.70;;
18838;SDS011;9548;56.920;14.804;2023-06-22T12:10:25;2.40;;;1.60;;
18838;SDS011;9548;56.920;14.804;2023-06-22T12:12:53;2.85;;;1.60;;
18838;SDS011;9548;56.920;14.804;2023-06-22T12:15:20;2.38;;;1.77;;
18838;SDS011;9548;56.920;14.804;2023-06-22T12:17:47;3.65;;;1.50;;
18838;SDS011;9548;56.920;14.804;2023-06-22T12:20:14;4.95;;;1.50;;
18838;SDS011;9548;56.920;14.804;2023-06-22T12:22:41;1.80;;;1.30;;
18838;SDS011;9548;56.920;14.804;2023-06-22T12:25:09;6.50;;;1.42;;
18838;SDS011;9548;56.920;14.804;2023-06-22T12:27:36;3.00;;;1.38;;
18838;SDS011;9548;56.920;14.804;2023-06-22T12:30:04;3.33;;;1.67;;
18838;SDS011;9548;56.920;14.804;2023-06-22T12:32:32;3.05;;;1.45;;
18838;SDS011;9548;56.920;14.804;2023-06-22T12:34:58;4.03;;;1.48;;
18838;SDS011;9548;56.920;14.804;2023-06-22T12:37:25;1.40;;;1.30;;
18838;SDS011;9548;56.920;14.804;2023-06-22T12:39:53;1.85;;;1.52;;
18838;SDS011;9548;56.920;14.804;2023-06-22T12:42:21;1.45;;;1.33;;
18838;SDS011;9548;56.920;14.804;2023-06-22T12:44:48;1.77;;;1.30;;
18838;SDS011;9548;56.920;14.804;2023-06-22T12:47:15;2.53;;;1.55;;
18838;SDS011;9548;56.920;14.804;2023-06-22T12:49:42;2.13;;;1.58;;
18838;SDS011;9548;56.920;14.804;2023-06-22T12:52:09;3.30;;;1.50;;
18838;SDS011;9548;56.920;14.804;2023-06-22T12:54:36;1.60;;;1.20;;
18838;SDS011;9548;56.920;14.804;2023-06-22T12:57:03;2.40;;;1.52;;
18838;SDS011;9548;56.920;14.804;2023-06-22T12:59:32;1.83;;;1.58;;
18838;SDS011;9548;56.920;14.804;2023-06-22T13:01:59;3.30;;;1.52;;
18838;SDS011;9548;56.920;14.804;2023-06-22T13:04:26;3.15;;;1.65;;
18838;SDS011;9548;56.920;14.804;2023-06-22T13:06:52;2.53;;;1.70;;
18838;SDS011;9548;56.920;14.804;2023-06-22T13:09:19;2.55;;;1.70;;
18838;SDS011;9548;56.920;14.804;2023-06-22T13:11:46;1.75;;;1.65;;
18838;SDS011;9548;56.920;14.804;2023-06-22T13:14:13;2.50;;;1.75;;
18838;SDS011;9548;56.920;14.804;2023-06-22T13:16:42;2.15;;;1.63;;
18838;SDS011;9548;56.920;14.804;2023-06-22T13:19:09;2.35;;;1.45;;
18838;SDS011;9548;56.920;14.804;2023-06-22T13:21:36;9.52;;;1.50;;
18838;SDS011;9548;56.920;14.804;2023-06-22T13:24:03;4.03;;;1.73;;
18838;SDS011;9548;56.920;14.804;2023-06-22T13:26:32;1.55;;;1.40;;
18838;SDS011;9548;56.920;14.804;2023-06-22T13:28:59;2.90;;;1.90;;
18838;SDS011;9548;56.920;14.804;2023-06-22T13:31:26;3.33;;;1.60;;
18838;SDS011;9548;56.920;14.804;2023-06-22T13:33:54;4.97;;;1.52;;
18838;SDS011;9548;56.920;14.804;2023-06-22T13:36:21;3.75;;;1.63;;
18838;SDS011;9548;56.920;14.804;2023-06-22T13:38:48;5.43;;;1.73;;
18838;SDS011;9548;56.920;14.804;2023-06-22T13:41:15;4.20;;;1.85;;
18838;SDS011;9548;56.920;14.804;2023-06-22T13:43:42;2.45;;;1.50;;
18838;SDS011;9548;56.920;14.804;2023-06-22T13:46:08;3.10;;;1.90;;
18838;SDS011;9548;56.920;14.804;2023-06-22T13:48:35;2.65;;;1.70;;
18838;SDS011;9548;56.920;14.804;2023-06-22T13:51:04;4.60;;;1.58;;
18838;SDS011;9548;56.920;14.804;2023-06-22T13:53:31;3.85;;;1.70;;
18838;SDS011;9548;56.920;14.804;2023-06-22T13:55:58;4.75;;;1.40;;
18838;SDS011;9548;56.920;14.804;2023-06-22T13:58:24;2.17;;;1.40;;
18838;SDS011;9548;56.920;14.804;2023-06-22T14:00:51;2.10;;;1.52;;
18838;SDS011;9548;56.920;14.804;2023-06-22T14:03:18;1.50;;;1.40;;
18838;SDS011;9548;56.920;14.804;2023-06-22T14:05:45;5.05;;;1.73;;
18838;SDS011;9548;56.920;14.804;2023-06-22T14:08:13;1.52;;;1.40;;
18838;SDS011;9548;56.920;14.804;2023-06-22T14:10:40;1.70;;;1.40;;
18838;SDS011;9548;56.920;14.804;2023-06-22T14:13:07;4.00;;;1.60;;
18838;SDS011;9548;56.920;14.804;2023-06-22T14:15:34;1.70;;;1.60;;
18838;SDS011;9548;56.920;14.804;2023-06-22T14:18:00;3.53;;;1.60;;
18838;SDS011;9548;56.920;14.804;2023-06-22T14:20:27;1.40;;;1.30;;
18838;SDS011;9548;56.920;14.804;2023-06-22T14:22:54;4.55;;;1.60;;
18838;SDS011;9548;56.920;14.804;2023-06-22T14:25:22;1.75;;;1.58;;
18838;SDS011;9548;56.920;14.804;2023-06-22T14:27:49;3.72;;;1.50;;
18838;SDS011;9548;56.920;14.804;2023-06-22T14:30:16;2.75;;;1.45;;
18838;SDS011;9548;56.920;14.804;2023-06-22T14:32:43;2.85;;;1.60;;
18838;SDS011;9548;56.920;14.804;2023-06-22T14:35:11;3.90;;;1.50;;
18838;SDS011;9548;56.920;14.804;2023-06-22T14:37:37;3.67;;;1.52;;
18838;SDS011;9548;56.920;14.804;2023-06-22T14:40:05;3.15;;;1.50;;
18838;SDS011;9548;56.920;14.804;2023-06-22T14:42:34;1.73;;;1.60;;
18838;SDS011;9548;56.920;14.804;2023-06-22T14:45:01;2.75;;;1.58;;
18838;SDS011;9548;56.920;14.804;2023-06-22T14:47:28;2.08;;;1.58;;
18838;SDS011;9548;56.920;14.804;2023-06-22T14:49:54;4.47;;;1.60;;